createdAt,value
2018-05-10T00:01:43.777Z,100641.74
2018-05-10T00:04:47.090Z,100650.39
2018-05-10T00:07:50.861Z,100652.12
2018-05-10T00:10:54.215Z,100659.09
2018-05-10T00:13:58.592Z,100657.73
2018-05-10T00:17:02.026Z,100656.87
2018-05-10T00:20:05.372Z,100655.97
2018-05-10T00:23:08.718Z,100654.20
2018-05-10T00:26:12.128Z,100647.28
2018-05-10T00:29:15.500Z,100638.86
2018-05-10T00:32:18.669Z,100631.74
2018-05-10T00:35:23.346Z,100633.60
2018-05-10T00:38:26.715Z,100629.84
2018-05-10T00:41:30.052Z,100629.32
2018-05-10T00:44:33.427Z,100627.96
2018-05-10T00:47:36.740Z,100633.60
2018-05-10T00:50:40.108Z,100633.81
2018-05-10T00:53:43.410Z,100640.06
2018-05-10T00:56:46.809Z,100645.04
2018-05-10T00:59:50.492Z,100640.55
2018-05-10T01:02:53.866Z,100628.22
2018-05-10T01:05:57.230Z,100632.15
2018-05-10T01:09:00.907Z,100639.78
2018-05-10T01:12:04.793Z,100645.08
2018-05-10T01:15:08.098Z,100639.33
2018-05-10T01:18:11.418Z,100643.98
2018-05-10T01:21:14.748Z,100638.19
2018-05-10T01:24:18.161Z,100649.83
2018-05-10T01:27:22.524Z,100646.83
2018-05-10T01:30:25.923Z,100652.33
2018-05-10T01:33:29.296Z,100647.93
2018-05-10T01:36:32.518Z,100643.64
2018-05-10T01:39:35.850Z,100631.09
2018-05-10T01:42:39.253Z,100625.63
2018-05-10T01:45:42.553Z,100622.59
2018-05-10T01:48:45.742Z,100623.68
2018-05-10T01:51:51.704Z,100622.11
2018-05-10T01:54:55.029Z,100622.92
2018-05-10T01:57:58.468Z,100617.14
2018-05-10T02:01:01.800Z,100619.80
2018-05-10T02:04:05.096Z,100623.33
2018-05-10T02:07:08.405Z,100622.37
2018-05-10T02:10:11.837Z,100624.70
2018-05-10T02:13:15.167Z,100630.53
2018-05-10T02:16:18.491Z,100632.73
2018-05-10T02:19:22.609Z,100631.89
2018-05-10T02:22:25.924Z,100628.56
2018-05-10T02:25:29.292Z,100634.12
2018-05-10T02:28:32.719Z,100637.92
2018-05-10T02:31:36.020Z,100645.51
2018-05-10T02:34:39.680Z,100665.64
2018-05-10T02:37:43.063Z,100668.49
2018-05-10T02:40:46.480Z,100666.01
2018-05-10T02:43:49.869Z,100673.67
2018-05-10T02:46:53.869Z,100671.73
2018-05-10T02:49:57.284Z,100678.21
2018-05-10T02:53:00.604Z,100676.28
2018-05-10T02:56:04.083Z,100682.17
2018-05-10T02:59:07.447Z,100684.47
2018-05-10T03:02:10.788Z,100689.53
2018-05-10T03:05:14.123Z,100689.65
2018-05-10T03:08:17.457Z,100693.79
2018-05-10T03:11:21.231Z,100699.52
2018-05-10T03:14:25.563Z,100704.57
2018-05-10T03:17:28.808Z,100704.48
2018-05-10T03:20:32.166Z,100706.65
2018-05-10T03:23:35.451Z,100713.32
2018-05-10T03:26:39.781Z,100711.27
2018-05-10T03:29:43.096Z,100713.93
2018-05-10T03:32:46.428Z,100721.22
2018-05-10T03:35:49.929Z,100719.18
2018-05-10T03:38:53.221Z,100722.00
2018-05-10T03:41:56.448Z,100722.85
2018-05-10T03:44:59.852Z,100730.55
2018-05-10T03:48:03.038Z,100741.24
2018-05-10T03:51:08.380Z,100749.41
2018-05-10T03:54:11.719Z,100751.87
2018-05-10T03:57:15.003Z,100755.56
2018-05-10T04:00:19.453Z,100758.47
2018-05-10T04:03:31.668Z,100759.01
2018-05-10T04:06:46.360Z,100762.00
2018-05-10T04:11:17.920Z,100762.16
2018-05-10T04:14:22.253Z,100757.62
2018-05-10T04:17:26.583Z,100760.14
2018-05-10T04:20:33.487Z,100765.70
2018-05-10T04:23:36.897Z,100767.99
2018-05-10T04:26:40.202Z,100774.46
2018-05-10T04:29:43.559Z,100780.28
2018-05-10T04:32:46.859Z,100789.25
2018-05-10T04:35:50.904Z,100784.17
2018-05-10T04:38:54.227Z,100793.07
2018-05-10T04:41:57.596Z,100789.02
2018-05-10T04:45:00.959Z,100790.25
2018-05-10T04:48:04.449Z,100794.42
2018-05-10T04:51:07.738Z,100797.94
2018-05-10T04:54:11.043Z,100797.22
2018-05-10T04:57:14.395Z,100794.92
2018-05-10T05:00:17.674Z,100808.64
2018-05-10T05:03:20.955Z,100815.60
2018-05-10T05:06:24.396Z,100812.95
2018-05-10T05:09:28.146Z,100809.49
2018-05-10T05:12:31.488Z,100806.01
2018-05-10T05:15:34.866Z,100806.75
2018-05-10T05:18:38.240Z,100808.72
2018-05-10T05:21:42.620Z,100814.65
2018-05-10T05:24:46.890Z,100811.56
2018-05-10T05:27:50.341Z,100818.37
2018-05-10T05:30:53.730Z,100827.62
2018-05-10T05:33:57.089Z,100835.61
2018-05-10T05:37:00.732Z,100842.09
2018-05-10T05:40:04.095Z,100857.16
2018-05-10T05:43:08.465Z,100867.04
2018-05-10T05:46:11.804Z,100875.14
2018-05-10T05:49:15.134Z,100882.16
2018-05-10T05:52:18.364Z,100895.08
2018-05-10T05:55:21.770Z,100895.00
2018-05-10T05:58:25.166Z,100895.20
2018-05-10T06:01:29.645Z,100893.54
2018-05-10T06:04:33.049Z,100887.70
2018-05-10T06:07:36.304Z,100893.76
2018-05-10T06:10:39.663Z,100896.99
2018-05-10T06:13:43.074Z,100895.09
2018-05-10T06:16:46.497Z,100898.75
2018-05-10T06:19:49.835Z,100905.84
2018-05-10T06:22:53.247Z,100906.28
2018-05-10T06:25:56.624Z,100905.10
2018-05-10T06:29:00.281Z,100911.21
2018-05-10T06:32:03.677Z,100914.42
2018-05-10T06:35:07.029Z,100914.16
2018-05-10T06:38:10.356Z,100930.08
2018-05-10T06:41:13.736Z,100933.79
2018-05-10T06:44:17.226Z,100941.77
2018-05-10T06:47:20.592Z,100948.35
2018-05-10T06:50:23.924Z,100949.78
2018-05-10T06:53:27.944Z,100949.70
2018-05-10T06:56:32.292Z,100947.76
2018-05-10T06:59:35.831Z,100943.76
2018-05-10T07:02:39.319Z,100944.32
2018-05-10T07:05:42.595Z,100939.00
2018-05-10T07:08:46.047Z,100937.79
2018-05-10T07:11:49.413Z,100943.00
2018-05-10T07:14:52.811Z,100942.16
2018-05-10T07:17:56.174Z,100946.78
2018-05-10T07:20:59.580Z,100957.77
2018-05-10T07:24:03.152Z,100967.74
2018-05-10T07:27:06.582Z,100970.94
2018-05-10T07:30:09.958Z,100966.03
2018-05-10T07:33:13.351Z,100963.88
2018-05-10T07:36:16.835Z,100961.93
2018-05-10T07:39:20.183Z,100957.61
2018-05-10T07:42:23.519Z,100962.77
2018-05-10T07:45:26.809Z,100974.96
2018-05-10T07:48:30.731Z,100982.47
2018-05-10T07:51:33.966Z,100989.11
2018-05-10T07:54:37.241Z,100995.57
2018-05-10T07:57:40.715Z,101006.45
2018-05-10T08:00:45.041Z,101015.75
2018-05-10T08:03:48.282Z,101029.30
2018-05-10T08:06:51.649Z,101039.04
2018-05-10T08:09:55.221Z,101047.19
2018-05-10T08:12:59.139Z,101049.49
2018-05-10T08:16:02.499Z,101056.94
2018-05-10T08:19:05.901Z,101054.25
2018-05-10T08:22:09.294Z,101061.14
2018-05-10T08:25:12.800Z,101063.49
2018-05-10T08:28:16.140Z,101063.63
2018-05-10T08:31:19.568Z,101065.93
2018-05-10T08:34:22.943Z,101069.69
2018-05-10T08:37:26.115Z,101076.31
2018-05-10T08:40:30.187Z,101077.24
2018-05-10T08:43:33.532Z,101084.79
2018-05-10T08:46:36.994Z,101086.60
2018-05-10T08:49:40.336Z,101091.47
2018-05-10T08:52:43.759Z,101099.45
2018-05-10T08:55:47.163Z,101109.48
2018-05-10T08:58:50.568Z,101108.98
2018-05-10T09:01:53.915Z,101114.21
2018-05-10T09:04:57.466Z,101115.45
2018-05-10T09:08:01.971Z,101111.02
2018-05-10T09:11:05.571Z,101116.05
2018-05-10T09:14:08.804Z,101124.15
2018-05-10T09:17:12.000Z,101131.89
2018-05-10T09:20:15.487Z,101134.54
2018-05-10T09:23:18.816Z,101140.14
2018-05-10T09:26:22.213Z,101146.31
2018-05-10T09:29:25.490Z,101150.43
2018-05-10T09:32:29.512Z,101159.38
2018-05-10T09:35:32.688Z,101159.75
2018-05-10T09:38:36.113Z,101165.72
2018-05-10T09:41:39.928Z,101170.40
2018-05-10T09:44:43.228Z,101179.99
2018-05-10T09:47:47.485Z,101189.06
2018-05-10T09:50:50.907Z,101198.88
2018-05-10T09:53:54.331Z,101201.76
2018-05-10T09:56:58.045Z,101207.60
2018-05-10T10:00:01.457Z,101210.18
2018-05-10T10:03:04.750Z,101216.71
2018-05-10T10:06:08.088Z,101219.75
2018-05-10T10:09:11.438Z,101224.76
2018-05-10T10:12:14.739Z,101228.04
2018-05-10T10:15:17.961Z,101232.03
2018-05-10T10:18:21.283Z,101236.19
2018-05-10T10:21:24.517Z,101243.25
2018-05-10T10:24:27.750Z,101248.08
2018-05-10T10:27:30.971Z,101249.17
2018-05-10T10:30:34.259Z,101248.95
2018-05-10T10:33:37.603Z,101251.06
2018-05-10T10:36:41.751Z,101251.35
2018-05-10T10:39:45.795Z,101253.75
2018-05-10T10:42:48.980Z,101260.70
2018-05-10T10:45:52.349Z,101263.74
2018-05-10T10:48:55.817Z,101263.28
2018-05-10T10:51:59.112Z,101268.91
2018-05-10T10:55:02.347Z,101276.65
2018-05-10T10:58:05.727Z,101285.08
2018-05-10T11:01:09.119Z,101295.60
2018-05-10T11:04:12.366Z,101300.25
2018-05-10T11:07:16.080Z,101304.46
2018-05-10T11:10:19.407Z,101311.56
2018-05-10T11:13:22.844Z,101314.94
2018-05-10T11:16:26.224Z,101315.61
2018-05-10T11:19:29.599Z,101317.79
2018-05-10T11:22:33.083Z,101320.46
2018-05-10T11:25:36.399Z,101323.14
2018-05-10T11:28:39.824Z,101324.73
2018-05-10T11:31:43.582Z,101330.34
2018-05-10T11:34:46.905Z,101332.10
2018-05-10T11:37:50.580Z,101337.13
2018-05-10T11:40:53.901Z,101337.64
2018-05-10T11:43:57.386Z,101343.45
2018-05-10T11:47:00.729Z,101344.47
2018-05-10T11:50:04.173Z,101347.83
2018-05-10T11:53:07.459Z,101353.35
2018-05-10T11:56:10.817Z,101360.36
2018-05-10T11:59:14.012Z,101360.57
2018-05-10T12:02:17.318Z,101370.62
2018-05-10T12:05:20.721Z,101368.61
2018-05-10T12:08:24.405Z,101378.25
2018-05-10T12:11:28.822Z,101382.17
2018-05-10T12:14:32.942Z,101384.80
2018-05-10T12:17:36.345Z,101387.66
2018-05-10T12:20:39.744Z,101390.85
2018-05-10T12:23:43.223Z,101395.81
2018-05-10T12:26:46.622Z,101397.01
2018-05-10T12:29:49.822Z,101404.60
2018-05-10T12:32:53.168Z,101401.41
2018-05-10T12:35:56.510Z,101407.05
2018-05-10T12:39:05.097Z,101407.80
2018-05-10T12:42:08.588Z,101415.35
2018-05-10T12:45:11.910Z,101413.22
2018-05-10T12:48:15.276Z,101424.91
2018-05-10T12:51:19.548Z,101427.61
2018-05-10T12:54:24.900Z,101424.91
2018-05-10T12:57:28.281Z,101435.23
2018-05-10T13:00:33.088Z,101440.60
2018-05-10T13:03:36.533Z,101439.77
2018-05-10T13:06:39.875Z,101442.89
2018-05-10T13:09:44.204Z,101448.02
2018-05-10T13:12:47.591Z,101449.21
2018-05-10T13:15:50.884Z,101451.32
2018-05-10T13:18:54.214Z,101455.70
2018-05-10T13:21:57.599Z,101455.47
2018-05-10T13:25:01.003Z,101460.58
2018-05-10T13:28:05.478Z,101464.20
2018-05-10T13:31:08.868Z,101470.81
2018-05-10T13:34:12.331Z,101471.91
2018-05-10T13:37:15.612Z,101479.46
2018-05-10T13:40:19.106Z,101476.41
2018-05-10T13:43:22.475Z,101485.17
2018-05-10T13:46:25.812Z,101491.61
2018-05-10T13:49:29.028Z,101492.10
2018-05-10T13:52:34.510Z,101506.11
2018-05-10T13:55:37.863Z,101514.55
2018-05-10T13:58:41.267Z,101517.83
2018-05-10T14:01:44.580Z,101515.52
2018-05-10T14:04:47.983Z,101522.59
2018-05-10T14:07:52.349Z,101530.21
2018-05-10T14:10:55.643Z,101532.15
2018-05-10T14:13:58.966Z,101551.24
2018-05-10T14:17:03.478Z,101567.38
2018-05-10T14:20:06.839Z,101577.38
2018-05-10T14:23:10.341Z,101585.03
2018-05-10T14:26:13.591Z,101588.00
2018-05-10T14:29:17.022Z,101598.62
2018-05-10T14:32:20.426Z,101616.88
2018-05-10T14:35:23.792Z,101623.43
2018-05-10T14:38:27.229Z,101636.20
2018-05-10T14:41:30.607Z,101647.89
2018-05-10T14:44:34.907Z,101657.99
2018-05-10T14:47:38.342Z,101672.99
2018-05-10T14:50:41.630Z,101683.51
2018-05-10T14:53:45.077Z,101695.19
2018-05-10T14:56:48.441Z,101705.91
2018-05-10T14:59:51.726Z,101717.98
2018-05-10T15:02:55.107Z,101728.82
2018-05-10T15:05:58.392Z,101734.48
2018-05-10T15:09:03.130Z,101742.97
2018-05-10T15:12:06.580Z,101746.03
2018-05-10T15:15:09.938Z,101749.65
2018-05-10T15:18:13.178Z,101759.37
2018-05-10T15:21:16.557Z,101765.24
2018-05-10T15:24:19.865Z,101765.88
2018-05-10T15:27:23.432Z,101770.43
2018-05-10T15:30:26.832Z,101771.82
2018-05-10T15:33:30.068Z,101776.00
2018-05-10T15:36:33.960Z,101780.07
2018-05-10T15:39:37.309Z,101783.34
2018-05-10T15:42:40.501Z,101784.94
2018-05-10T15:45:43.805Z,101789.93
2018-05-10T15:48:47.284Z,101792.46
2018-05-10T15:51:50.870Z,101792.42
2018-05-10T15:54:54.175Z,101802.06
2018-05-10T15:57:57.856Z,101809.30
2018-05-10T16:01:01.244Z,101811.19
2018-05-10T16:04:05.249Z,101815.14
2018-05-10T16:07:08.671Z,101820.72
2018-05-10T16:10:11.969Z,101818.80
2018-05-10T16:13:15.424Z,101830.54
2018-05-10T16:16:18.847Z,101827.52
2018-05-10T16:19:22.179Z,101837.56
2018-05-10T16:22:25.614Z,101842.98
2018-05-10T16:25:28.980Z,101846.18
2018-05-10T16:28:33.990Z,101845.38
2018-05-10T16:31:37.722Z,101847.97
2018-05-10T16:34:40.976Z,101849.35
2018-05-10T16:37:44.295Z,101851.40
2018-05-10T16:40:47.766Z,101851.03
2018-05-10T16:43:51.107Z,101851.56
2018-05-10T16:46:54.444Z,101854.81
2018-05-10T16:49:57.834Z,101855.28
2018-05-10T16:53:01.270Z,101862.21
2018-05-10T16:56:05.855Z,101867.71
2018-05-10T16:59:09.231Z,101866.83
2018-05-10T17:02:12.644Z,101871.96
2018-05-10T17:05:16.040Z,101877.53
2018-05-10T17:08:19.393Z,101887.32
2018-05-10T17:11:22.699Z,101886.58
2018-05-10T17:14:26.059Z,101885.54
2018-05-10T17:17:29.415Z,101888.57
2018-05-10T17:20:32.751Z,101897.74
2018-05-10T17:23:37.256Z,101904.57
2018-05-10T17:26:40.561Z,101902.80
2018-05-10T17:29:44.140Z,101913.87
2018-05-10T17:32:47.452Z,101911.81
2018-05-10T17:35:50.703Z,101916.85
2018-05-10T17:38:54.188Z,101914.70
2018-05-10T17:41:57.579Z,101912.89
2018-05-10T17:45:01.145Z,101914.90
2018-05-10T17:48:04.901Z,101923.51
2018-05-10T17:51:08.179Z,101925.98
2018-05-10T17:54:11.622Z,101933.33
2018-05-10T17:57:14.968Z,101940.86
2018-05-10T18:00:18.250Z,101948.02
2018-05-10T18:03:21.480Z,101949.11
2018-05-10T18:06:24.760Z,101961.83
2018-05-10T18:09:28.138Z,101962.74
2018-05-10T18:12:31.532Z,101972.03
2018-05-10T18:15:34.860Z,101971.90
2018-05-10T18:18:38.116Z,101979.91
2018-05-10T18:21:43.513Z,101986.95
2018-05-10T18:24:46.838Z,101992.67
2018-05-10T18:27:50.259Z,101995.10
2018-05-10T18:30:53.729Z,101998.23
2018-05-10T18:33:57.112Z,102005.89
2018-05-10T18:37:00.618Z,102010.96
2018-05-10T18:40:04.036Z,102015.38
2018-05-10T18:43:07.437Z,102019.33
2018-05-10T18:46:11.275Z,102021.58
2018-05-10T18:49:14.624Z,102025.29
2018-05-10T18:52:19.091Z,102030.89
2018-05-10T18:55:22.694Z,102033.07
2018-05-10T18:58:25.977Z,102034.21
2018-05-10T19:01:29.319Z,102044.03
2018-05-10T19:04:32.539Z,102048.01
2018-05-10T19:07:36.857Z,102057.42
2018-05-10T19:10:40.309Z,102058.93
2018-05-10T19:13:43.651Z,102069.15
2018-05-10T19:16:46.874Z,102077.72
2018-05-10T19:19:50.277Z,102076.45
2018-05-10T19:22:53.654Z,102080.24
2018-05-10T19:25:57.701Z,102090.94
2018-05-10T19:29:01.219Z,102096.28
2018-05-10T19:32:05.111Z,102102.50
2018-05-10T19:35:08.491Z,102110.32
2018-05-10T19:38:11.867Z,102108.68
2018-05-10T19:41:15.238Z,102118.82
2018-05-10T19:44:18.653Z,102124.99
2018-05-10T19:47:22.057Z,102127.04
2018-05-10T19:50:25.735Z,102127.38
2018-05-10T19:53:29.080Z,102132.74
2018-05-10T19:56:32.554Z,102127.91
2018-05-10T19:59:35.884Z,102134.17
2018-05-10T20:02:39.354Z,102138.03
2018-05-10T20:05:45.845Z,102146.74
2018-05-10T20:08:49.329Z,102151.14
2018-05-10T20:11:52.653Z,102154.05
2018-05-10T20:14:57.728Z,102157.59
2018-05-10T20:18:01.069Z,102161.31
2018-05-10T20:21:04.374Z,102164.31
2018-05-10T20:24:08.790Z,102165.32
2018-05-10T20:27:12.156Z,102160.13
2018-05-10T20:30:15.453Z,102164.84
2018-05-10T20:33:18.765Z,102162.95
2018-05-10T20:36:24.209Z,102172.23
2018-05-10T20:39:27.557Z,102173.17
2018-05-10T20:42:30.896Z,102176.18
2018-05-10T20:45:35.723Z,102177.00
2018-05-10T20:48:39.213Z,102179.66
2018-05-10T20:51:42.619Z,102183.77
2018-05-10T20:54:46.224Z,102181.09
2018-05-10T20:57:50.654Z,102187.56
2018-05-10T21:00:55.070Z,102185.92
2018-05-10T21:03:58.292Z,102185.58
2018-05-10T21:07:01.790Z,102186.34
2018-05-10T21:10:05.362Z,102186.36
2018-05-10T21:13:12.177Z,102187.33
2018-05-10T21:16:15.527Z,102192.06
2018-05-10T21:19:19.041Z,102189.50
2018-05-10T21:22:22.308Z,102191.87
2018-05-10T21:25:25.753Z,102194.46
2018-05-10T21:28:29.118Z,102197.53
2018-05-10T21:31:33.610Z,102193.55
2018-05-10T21:34:37.053Z,102198.00
2018-05-10T21:37:40.352Z,102200.71
2018-05-10T21:40:45.757Z,102202.65
2018-05-10T21:43:49.122Z,102198.21
2018-05-10T21:46:52.529Z,102203.41
2018-05-10T21:50:03.943Z,102199.45
2018-05-10T21:53:07.264Z,102199.68
2018-05-10T21:56:10.545Z,102203.26
2018-05-10T21:59:13.901Z,102198.22
2018-05-10T22:02:17.661Z,102204.99
2018-05-10T22:05:21.020Z,102206.00
2018-05-10T22:08:24.424Z,102211.83
2018-05-10T22:11:27.813Z,102207.08
2018-05-10T22:14:31.218Z,102218.89
2018-05-10T22:17:34.812Z,102216.32
2018-05-10T22:20:38.562Z,102223.86
2018-05-10T22:23:41.952Z,102224.43
2018-05-10T22:26:45.340Z,102233.44
2018-05-10T22:29:48.496Z,102231.73
2018-05-10T22:32:51.964Z,102239.25
2018-05-10T22:35:55.438Z,102244.24
2018-05-10T22:38:58.816Z,102243.05
2018-05-10T22:42:03.822Z,102241.30
2018-05-10T22:45:07.481Z,102245.17
2018-05-10T22:48:10.965Z,102240.91
2018-05-10T22:51:14.388Z,102240.70
2018-05-10T22:54:17.818Z,102239.55
2018-05-10T22:57:21.222Z,102237.45
2018-05-10T23:00:24.585Z,102237.45
2018-05-10T23:03:28.071Z,102231.18
2018-05-10T23:06:31.522Z,102232.53
2018-05-10T23:09:35.958Z,102232.55
2018-05-10T23:12:39.316Z,102231.30
2018-05-10T23:15:42.735Z,102240.13
2018-05-10T23:18:46.106Z,102239.70
2018-05-10T23:21:49.505Z,102240.20
2018-05-10T23:24:52.871Z,102238.30
2018-05-10T23:27:56.329Z,102241.80
2018-05-10T23:30:59.717Z,102236.79
2018-05-10T23:34:03.603Z,102236.72
2018-05-10T23:37:08.997Z,102233.54
2018-05-10T23:40:12.314Z,102234.09
2018-05-10T23:43:15.644Z,102239.33
2018-05-10T23:46:18.955Z,102240.04
2018-05-10T23:49:22.484Z,102234.41
2018-05-10T23:52:25.978Z,102225.03
2018-05-10T23:55:29.232Z,102227.04
2018-05-10T23:58:33.599Z,102223.20
